createdAt,value
2024-04-25T00:01:30.633Z,6.7491
2024-04-25T00:11:40.000Z,6.7259
2024-04-25T00:21:52.599Z,6.7073
2024-04-25T00:32:01.427Z,6.6734
2024-04-25T00:42:10.330Z,6.6441
2024-04-25T00:52:19.110Z,6.6184
2024-04-25T01:02:27.890Z,6.5816
2024-04-25T01:12:36.474Z,6.5477
2024-04-25T01:22:45.384Z,6.5136
2024-04-25T01:32:54.729Z,6.4720
2024-04-25T01:43:03.336Z,6.4309
2024-04-25T01:53:12.059Z,6.3973
2024-04-25T02:03:20.750Z,6.3598
2024-04-25T02:13:29.497Z,6.3380
2024-04-25T02:23:38.285Z,6.3070
2024-04-25T02:33:47.130Z,6.2861
2024-04-25T02:43:55.872Z,6.2673
2024-04-25T02:54:04.885Z,6.2495
2024-04-25T03:04:13.757Z,6.2305
2024-04-25T03:14:23.439Z,6.2118
2024-04-25T03:24:32.348Z,6.1980
2024-04-25T03:34:41.165Z,6.1814
2024-04-25T03:44:50.468Z,6.1618
2024-04-25T03:54:59.446Z,6.1523
2024-04-25T04:05:08.119Z,6.1345
2024-04-25T04:15:20.540Z,6.1170
2024-04-25T04:25:29.829Z,6.1007
2024-04-25T04:35:38.843Z,6.0891
2024-04-25T04:45:49.729Z,6.0693
2024-04-25T04:55:58.429Z,6.0550
2024-04-25T05:06:10.405Z,6.0495
2024-04-25T05:16:19.625Z,6.0384
2024-04-25T05:26:29.633Z,6.0268
2024-04-25T05:36:38.855Z,6.0207
2024-04-25T05:46:48.145Z,6.0286
2024-04-25T05:56:58.313Z,6.0464
2024-04-25T06:07:17.970Z,6.0664
2024-04-25T06:17:26.827Z,6.1116
2024-04-25T06:27:35.554Z,6.1534
2024-04-25T06:37:44.198Z,6.2091
2024-04-25T06:47:53.024Z,6.2707
2024-04-25T06:58:01.890Z,6.3473
2024-04-25T07:08:11.214Z,6.4145
2024-04-25T07:18:24.672Z,6.4898
2024-04-25T07:28:33.855Z,6.5605
2024-04-25T07:38:43.501Z,6.6380
2024-04-25T07:48:52.343Z,6.7223
2024-04-25T07:59:01.766Z,6.8207
2024-04-25T08:09:10.771Z,6.9261
2024-04-25T08:19:24.211Z,7.0414
2024-04-25T08:29:32.936Z,7.1645
2024-04-25T08:39:42.153Z,7.3120
2024-04-25T08:49:50.950Z,7.4805
2024-04-25T09:00:00.328Z,7.6743
2024-04-25T09:10:10.599Z,7.8573
2024-04-25T09:20:19.642Z,8.0218
2024-04-25T09:30:29.266Z,8.1745
2024-04-25T09:40:38.415Z,8.2959
2024-04-25T09:50:47.683Z,8.4000
2024-04-25T10:00:57.607Z,8.4861
2024-04-25T10:11:09.868Z,8.5375
2024-04-25T10:21:19.975Z,8.5620
2024-04-25T10:31:29.125Z,8.6111
2024-04-25T10:41:40.086Z,8.6941
2024-04-25T10:51:49.415Z,8.7905
2024-04-25T11:01:58.932Z,8.9239
2024-04-25T11:12:19.553Z,9.0891
2024-04-25T11:22:36.084Z,9.2425
2024-04-25T11:32:42.355Z,9.3164
2024-04-25T11:42:51.657Z,9.3698
2024-04-25T11:53:03.905Z,9.4355
2024-04-25T12:03:12.748Z,9.5323
2024-04-25T12:13:25.419Z,9.6520
2024-04-25T12:23:37.165Z,9.7773
2024-04-25T12:33:47.814Z,9.8964
2024-04-25T12:44:00.324Z,9.9814
2024-04-25T12:54:18.487Z,10.0157
2024-04-25T13:04:28.549Z,10.0436
2024-04-25T13:14:39.073Z,10.1007
2024-04-25T13:24:51.202Z,10.2100
2024-04-25T13:35:01.668Z,10.3448
2024-04-25T13:45:12.123Z,10.4768
2024-04-25T13:55:22.867Z,10.5670
2024-04-25T14:05:34.310Z,10.6434
2024-04-25T14:16:15.506Z,10.6912
2024-04-25T14:26:25.205Z,10.7202
2024-04-25T14:36:29.884Z,10.7477
2024-04-25T14:46:50.280Z,10.7998
2024-04-25T14:57:04.033Z,10.8384
2024-04-25T15:07:14.302Z,10.8423
2024-04-25T15:17:27.323Z,10.8095
2024-04-25T15:27:39.747Z,10.7716
2024-04-25T15:37:53.739Z,10.7339
2024-04-25T15:48:04.627Z,10.6989
2024-04-25T15:58:19.253Z,10.6607
2024-04-25T16:08:30.014Z,10.6052
2024-04-25T16:18:46.693Z,10.5448
2024-04-25T16:29:00.612Z,10.4718
2024-04-25T16:39:12.868Z,10.3936
2024-04-25T16:49:26.020Z,10.3043
2024-04-25T16:59:37.594Z,10.2226
2024-04-25T17:09:51.275Z,10.1423
2024-04-25T17:20:01.516Z,10.0559
2024-04-25T17:30:11.511Z,9.9577
2024-04-25T17:40:21.452Z,9.8480
2024-04-25T17:50:31.364Z,9.7482
2024-04-25T18:00:40.807Z,9.6457
2024-04-25T18:10:50.755Z,9.5407
2024-04-25T18:21:00.289Z,9.4243
2024-04-25T18:31:10.397Z,9.3080
2024-04-25T18:41:20.386Z,9.1855
2024-04-25T18:51:29.577Z,9.0605
2024-04-25T19:01:38.536Z,8.9355
2024-04-25T19:11:47.956Z,8.8116
2024-04-25T19:21:57.217Z,8.6941
2024-04-25T19:32:06.205Z,8.5793
2024-04-25T19:42:15.570Z,8.4702
2024-04-25T19:52:24.661Z,8.3591
2024-04-25T20:02:33.709Z,8.2520
2024-04-25T20:12:42.654Z,8.1591
2024-04-25T20:22:51.576Z,8.0552
2024-04-25T20:33:00.656Z,7.9657
2024-04-25T20:43:09.793Z,7.8714
2024-04-25T20:53:18.599Z,7.7895
2024-04-25T21:03:27.978Z,7.6986
2024-04-25T21:13:36.897Z,7.6195
2024-04-25T21:23:45.999Z,7.5366
2024-04-25T21:33:55.153Z,7.4580
2024-04-25T21:44:04.198Z,7.3832
2024-04-25T21:54:13.660Z,7.3070
2024-04-25T22:04:22.713Z,7.2432
2024-04-25T22:14:31.538Z,7.1720
2024-04-25T22:24:40.404Z,7.1075
2024-04-25T22:34:49.402Z,7.0418
2024-04-25T22:45:01.476Z,6.9784
2024-04-25T22:55:12.971Z,6.9209
2024-04-25T23:05:21.970Z,6.8700
2024-04-25T23:15:30.849Z,6.8295
2024-04-25T23:25:39.982Z,6.7750
2024-04-25T23:35:48.909Z,6.7461
2024-04-25T23:45:57.834Z,6.7227
2024-04-25T23:56:06.682Z,6.7080
